createdAt,value
2023-01-24T00:01:30.309Z,97715.72
2023-01-24T00:04:01.877Z,97723.44
2023-01-24T00:06:33.447Z,97728.66
2023-01-24T00:09:05.059Z,97726.84
2023-01-24T00:11:36.782Z,97729.72
2023-01-24T00:14:08.418Z,97737.56
2023-01-24T00:16:39.956Z,97734.75
2023-01-24T00:19:11.567Z,97736.78
2023-01-24T00:21:43.148Z,97742.66
2023-01-24T00:24:14.821Z,97739.97
2023-01-24T00:26:46.504Z,97750.22
2023-01-24T00:29:18.130Z,97760.38
2023-01-24T00:31:49.779Z,97755.00
2023-01-24T00:34:21.634Z,97755.44
2023-01-24T00:36:53.225Z,97763.00
2023-01-24T00:39:24.857Z,97768.81
2023-01-24T00:41:58.324Z,97759.84
2023-01-24T00:44:29.929Z,97755.50
2023-01-24T00:47:01.579Z,97763.09
2023-01-24T00:49:33.725Z,97761.66
2023-01-24T00:52:05.390Z,97764.94
2023-01-24T00:54:37.175Z,97769.97
2023-01-24T00:57:08.787Z,97775.91
2023-01-24T00:59:40.301Z,97779.66
2023-01-24T01:02:11.992Z,97780.91
2023-01-24T01:04:43.714Z,97788.34
2023-01-24T01:07:15.347Z,97794.09
2023-01-24T01:09:47.520Z,97794.53
2023-01-24T01:12:19.148Z,97791.41
2023-01-24T01:14:50.758Z,97790.31
2023-01-24T01:17:23.015Z,97786.53
2023-01-24T01:19:54.912Z,97794.09
2023-01-24T01:22:26.876Z,97794.88
2023-01-24T01:24:58.411Z,97797.38
2023-01-24T01:27:30.045Z,97810.91
2023-01-24T01:30:01.763Z,97808.69
2023-01-24T01:32:33.566Z,97817.56
2023-01-24T01:35:05.678Z,97819.38
2023-01-24T01:37:37.308Z,97822.91
2023-01-24T01:40:09.582Z,97824.19
2023-01-24T01:42:45.899Z,97824.88
2023-01-24T01:45:32.870Z,97824.09
2023-01-24T01:48:18.374Z,97823.84
2023-01-24T01:51:00.916Z,97828.47
2023-01-24T01:53:45.013Z,97828.00
2023-01-24T01:56:24.637Z,97832.63
2023-01-24T01:59:02.927Z,97822.75
2023-01-24T02:01:35.028Z,97820.72
2023-01-24T02:04:12.034Z,97834.19
2023-01-24T02:07:14.611Z,97822.25
2023-01-24T02:09:50.158Z,97830.72
2023-01-24T02:12:26.451Z,97822.97
2023-01-24T02:15:04.442Z,97835.28
2023-01-24T02:17:36.208Z,97836.84
2023-01-24T02:20:18.497Z,97832.19
2023-01-24T02:23:10.285Z,97837.91
2023-01-24T02:26:09.242Z,97837.81
2023-01-24T02:28:50.216Z,97826.78
2023-01-24T02:31:22.601Z,97835.47
2023-01-24T02:33:54.576Z,97831.38
2023-01-24T02:36:34.183Z,97825.94
2023-01-24T02:39:15.523Z,97839.38
2023-01-24T02:42:18.780Z,97829.41
2023-01-24T02:45:11.476Z,97836.22
2023-01-24T02:47:51.038Z,97839.41
2023-01-24T02:50:29.783Z,97839.66
2023-01-24T02:53:01.379Z,97839.31
2023-01-24T02:55:34.437Z,97841.13
2023-01-24T02:58:06.073Z,97833.50
2023-01-24T03:00:41.604Z,97852.81
2023-01-24T03:03:16.233Z,97843.44
2023-01-24T03:05:47.916Z,97832.34
2023-01-24T03:08:22.016Z,97845.75
2023-01-24T03:10:59.672Z,97838.19
2023-01-24T03:13:34.098Z,97840.59
2023-01-24T03:16:07.048Z,97846.97
2023-01-24T03:18:38.688Z,97844.06
2023-01-24T03:21:10.349Z,97841.69
2023-01-24T03:23:42.950Z,97839.72
2023-01-24T03:26:14.662Z,97849.16
2023-01-24T03:28:47.720Z,97852.22
2023-01-24T03:31:19.583Z,97854.91
2023-01-24T03:33:51.223Z,97855.31
2023-01-24T03:36:22.909Z,97852.22
2023-01-24T03:38:59.574Z,97851.34
2023-01-24T03:41:34.210Z,97858.88
2023-01-24T03:44:08.199Z,97855.66
2023-01-24T03:46:40.437Z,97856.47
2023-01-24T03:49:13.253Z,97858.22
2023-01-24T03:51:45.127Z,97859.34
2023-01-24T03:54:16.879Z,97863.56
2023-01-24T03:56:57.915Z,97862.41
2023-01-24T03:59:30.858Z,97871.31
2023-01-24T04:02:02.844Z,97871.09
2023-01-24T04:04:38.747Z,97864.16
2023-01-24T04:07:24.910Z,97857.56
2023-01-24T04:09:59.991Z,97866.44
2023-01-24T04:12:33.111Z,97871.72
2023-01-24T04:15:06.329Z,97868.84
2023-01-24T04:17:38.988Z,97881.28
2023-01-24T04:20:14.701Z,97874.59
2023-01-24T04:22:46.693Z,97875.09
2023-01-24T04:25:19.329Z,97872.69
2023-01-24T04:27:53.083Z,97872.84
2023-01-24T04:30:30.640Z,97874.22
2023-01-24T04:33:04.431Z,97875.19
2023-01-24T04:35:36.200Z,97878.72
2023-01-24T04:38:08.872Z,97881.94
2023-01-24T04:41:02.254Z,97887.09
2023-01-24T04:43:41.565Z,97897.41
2023-01-24T04:46:13.257Z,97890.66
2023-01-24T04:49:10.728Z,97890.56
2023-01-24T04:51:53.415Z,97889.50
2023-01-24T04:54:33.569Z,97891.63
2023-01-24T04:57:05.351Z,97896.81
2023-01-24T04:59:36.981Z,97899.03
2023-01-24T05:02:10.101Z,97906.00
2023-01-24T05:04:46.936Z,97901.69
2023-01-24T05:07:18.555Z,97909.13
2023-01-24T05:09:56.114Z,97907.59
2023-01-24T05:12:28.442Z,97907.97
2023-01-24T05:15:03.244Z,97911.78
2023-01-24T05:17:34.969Z,97919.31
2023-01-24T05:20:08.087Z,97912.78
2023-01-24T05:22:39.687Z,97914.81
2023-01-24T05:25:11.534Z,97917.38
2023-01-24T05:27:44.184Z,97922.03
2023-01-24T05:30:17.809Z,97922.66
2023-01-24T05:32:51.111Z,97922.13
2023-01-24T05:35:22.999Z,97928.53
2023-01-24T05:37:55.157Z,97924.19
2023-01-24T05:40:28.737Z,97924.94
2023-01-24T05:43:00.732Z,97913.88
2023-01-24T05:45:33.575Z,97918.28
2023-01-24T05:48:05.575Z,97925.41
2023-01-24T05:50:37.643Z,97931.47
2023-01-24T05:53:19.590Z,97945.97
2023-01-24T05:56:07.601Z,97944.94
2023-01-24T05:58:39.946Z,97937.13
2023-01-24T06:01:16.281Z,97941.13
2023-01-24T06:03:52.365Z,97946.19
2023-01-24T06:06:25.848Z,97948.97
2023-01-24T06:08:57.501Z,97956.19
2023-01-24T06:11:30.652Z,97956.16
2023-01-24T06:14:24.025Z,97967.63
2023-01-24T06:16:59.230Z,97969.72
2023-01-24T06:19:31.914Z,97970.03
2023-01-24T06:22:39.271Z,97977.63
2023-01-24T06:25:23.565Z,97976.72
2023-01-24T06:27:55.754Z,97986.38
2023-01-24T06:30:27.957Z,97990.13
2023-01-24T06:33:07.741Z,97989.59
2023-01-24T06:35:59.853Z,97990.03
2023-01-24T06:38:31.976Z,97977.13
2023-01-24T06:41:04.232Z,97993.16
2023-01-24T06:43:36.250Z,97997.63
2023-01-24T06:46:09.983Z,97998.56
2023-01-24T06:48:45.624Z,98003.13
2023-01-24T06:51:17.171Z,98006.59
2023-01-24T06:53:48.751Z,98010.59
2023-01-24T06:56:20.364Z,97998.56
2023-01-24T06:58:51.993Z,98013.19
2023-01-24T07:01:23.915Z,98015.94
2023-01-24T07:03:55.659Z,98020.56
2023-01-24T07:06:27.277Z,98020.22
2023-01-24T07:09:00.083Z,98013.53
2023-01-24T07:11:31.848Z,98022.72
2023-01-24T07:14:03.970Z,98025.25
2023-01-24T07:16:37.759Z,98030.94
2023-01-24T07:19:16.444Z,98037.41
2023-01-24T07:21:50.391Z,98043.22
2023-01-24T07:24:26.435Z,98047.00
2023-01-24T07:26:58.528Z,98053.56
2023-01-24T07:29:30.096Z,98051.28
2023-01-24T07:32:01.846Z,98043.44
2023-01-24T07:34:33.496Z,98042.06
2023-01-24T07:37:07.814Z,98056.22
2023-01-24T07:39:40.112Z,98045.69
2023-01-24T07:42:11.812Z,98044.75
2023-01-24T07:44:43.507Z,98052.31
2023-01-24T07:47:15.262Z,98046.94
2023-01-24T07:49:47.270Z,98060.22
2023-01-24T07:52:19.135Z,98058.69
2023-01-24T07:54:50.878Z,98066.50
2023-01-24T07:57:22.601Z,98076.88
2023-01-24T07:59:54.376Z,98073.19
2023-01-24T08:02:26.208Z,98084.25
2023-01-24T08:04:57.989Z,98083.09
2023-01-24T08:07:29.698Z,98075.09
2023-01-24T08:10:01.412Z,98083.50
2023-01-24T08:12:33.084Z,98083.31
2023-01-24T08:15:05.226Z,98075.81
2023-01-24T08:17:37.974Z,98076.19
2023-01-24T08:20:10.369Z,98082.09
2023-01-24T08:22:56.091Z,98083.44
2023-01-24T08:25:29.091Z,98083.22
2023-01-24T08:28:00.976Z,98084.97
2023-01-24T08:30:32.674Z,98077.22
2023-01-24T08:33:09.547Z,98077.22
2023-01-24T08:35:41.140Z,98077.06
2023-01-24T08:38:13.627Z,98084.81
2023-01-24T08:40:49.928Z,98089.75
2023-01-24T08:43:22.218Z,98096.03
2023-01-24T08:45:56.886Z,98097.13
2023-01-24T08:48:31.887Z,98109.97
2023-01-24T08:51:04.708Z,98108.94
2023-01-24T08:53:36.449Z,98117.75
2023-01-24T08:56:08.189Z,98106.06
2023-01-24T08:58:39.906Z,98122.09
2023-01-24T09:01:12.013Z,98126.47
2023-01-24T09:03:43.569Z,98125.81
2023-01-24T09:06:15.391Z,98125.84
2023-01-24T09:08:47.018Z,98125.47
2023-01-24T09:11:18.623Z,98124.41
2023-01-24T09:13:50.250Z,98130.50
2023-01-24T09:16:21.939Z,98134.94
2023-01-24T09:18:54.322Z,98130.38
2023-01-24T09:21:26.117Z,98119.00
2023-01-24T09:23:57.943Z,98127.09
2023-01-24T09:26:29.623Z,98128.19
2023-01-24T09:29:01.144Z,98129.78
2023-01-24T09:31:32.856Z,98134.09
2023-01-24T09:34:04.622Z,98140.53
2023-01-24T09:36:36.280Z,98140.91
2023-01-24T09:39:07.905Z,98152.13
2023-01-24T09:42:10.046Z,98144.06
2023-01-24T09:45:00.698Z,98144.94
2023-01-24T09:47:57.204Z,98149.75
2023-01-24T09:50:31.705Z,98149.03
2023-01-24T09:53:03.549Z,98143.38
2023-01-24T09:55:43.220Z,98136.34
2023-01-24T09:58:23.763Z,98142.06
2023-01-24T10:00:56.004Z,98151.53
2023-01-24T10:03:29.137Z,98137.75
2023-01-24T10:06:12.603Z,98152.66
2023-01-24T10:09:05.754Z,98163.88
2023-01-24T10:12:03.038Z,98162.59
2023-01-24T10:14:45.355Z,98152.91
2023-01-24T10:17:23.387Z,98152.47
2023-01-24T10:20:16.353Z,98143.66
2023-01-24T10:23:07.003Z,98155.19
2023-01-24T10:25:53.716Z,98154.41
2023-01-24T10:28:35.343Z,98140.47
2023-01-24T10:31:14.260Z,98148.19
2023-01-24T10:33:52.742Z,98148.19
2023-01-24T10:36:55.367Z,98147.75
2023-01-24T10:39:27.180Z,98147.22
2023-01-24T10:41:58.742Z,98135.59
2023-01-24T10:44:37.517Z,98142.06
2023-01-24T10:47:33.454Z,98142.31
2023-01-24T10:50:14.920Z,98137.25
2023-01-24T10:52:46.728Z,98137.34
2023-01-24T10:55:36.045Z,98138.59
2023-01-24T10:58:24.530Z,98140.94
2023-01-24T11:00:59.343Z,98148.03
2023-01-24T11:03:32.769Z,98145.59
2023-01-24T11:06:04.651Z,98139.94
2023-01-24T11:08:38.494Z,98143.66
2023-01-24T11:11:24.137Z,98140.00
2023-01-24T11:14:02.425Z,98135.28
2023-01-24T11:16:43.208Z,98142.34
2023-01-24T11:19:29.025Z,98135.72
2023-01-24T11:22:24.545Z,98130.28
2023-01-24T11:25:02.416Z,98122.59
2023-01-24T11:27:49.283Z,98118.44
2023-01-24T11:30:23.400Z,98123.03
2023-01-24T11:33:22.967Z,98129.22
2023-01-24T11:36:08.343Z,98129.84
2023-01-24T11:38:44.538Z,98132.63
2023-01-24T11:41:44.919Z,98122.69
2023-01-24T11:44:38.554Z,98129.00
2023-01-24T11:47:20.951Z,98136.75
2023-01-24T11:50:35.463Z,98120.44
2023-01-24T11:53:09.995Z,98116.13
2023-01-24T11:55:48.157Z,98120.16
2023-01-24T11:58:37.695Z,98120.97
2023-01-24T12:01:22.544Z,98114.06
2023-01-24T12:04:12.775Z,98122.94
2023-01-24T12:06:50.741Z,98125.97
2023-01-24T12:09:24.507Z,98115.06
2023-01-24T12:12:25.347Z,98119.94
2023-01-24T12:15:23.652Z,98120.88
2023-01-24T12:18:35.924Z,98125.66
2023-01-24T12:21:10.061Z,98115.22
2023-01-24T12:24:00.818Z,98118.47
2023-01-24T12:26:43.066Z,98125.22
2023-01-24T12:29:37.049Z,98119.91
2023-01-24T12:32:30.065Z,98118.63
2023-01-24T12:35:31.985Z,98123.09
2023-01-24T12:38:28.467Z,98129.28
2023-01-24T12:41:08.931Z,98126.69
2023-01-24T12:43:40.424Z,98117.75
2023-01-24T12:46:24.067Z,98130.06
2023-01-24T12:49:15.046Z,98123.25
2023-01-24T12:52:02.783Z,98113.19
2023-01-24T12:55:16.679Z,98127.69
2023-01-24T12:58:24.147Z,98124.97
2023-01-24T13:01:11.151Z,98122.78
2023-01-24T13:03:58.049Z,98120.25
2023-01-24T13:06:54.571Z,98117.88
2023-01-24T13:09:41.104Z,98127.22
2023-01-24T13:12:23.615Z,98125.91
2023-01-24T13:15:00.955Z,98126.03
2023-01-24T13:17:58.471Z,98122.47
2023-01-24T13:20:39.144Z,98119.66
2023-01-24T13:23:38.876Z,98127.69
2023-01-24T13:26:19.445Z,98120.38
2023-01-24T13:29:06.094Z,98129.19
2023-01-24T13:32:08.790Z,98125.16
2023-01-24T13:34:51.039Z,98123.72
2023-01-24T13:37:29.488Z,98121.00
2023-01-24T13:40:07.439Z,98131.25
2023-01-24T13:42:40.589Z,98137.91
2023-01-24T13:45:24.230Z,98136.03
2023-01-24T13:47:59.235Z,98141.47
2023-01-24T13:50:31.877Z,98138.25
2023-01-24T13:53:03.660Z,98141.00
2023-01-24T13:55:41.037Z,98153.09
2023-01-24T13:58:23.780Z,98144.53
2023-01-24T14:00:59.105Z,98155.28
2023-01-24T14:03:37.632Z,98149.69
2023-01-24T14:06:14.409Z,98159.09
2023-01-24T14:08:50.923Z,98162.91
2023-01-24T14:11:27.154Z,98162.63
2023-01-24T14:14:02.013Z,98161.25
2023-01-24T14:16:39.796Z,98166.84
2023-01-24T14:19:29.305Z,98167.63
2023-01-24T14:22:15.481Z,98170.47
2023-01-24T14:24:47.036Z,98175.47
2023-01-24T14:27:28.335Z,98175.72
2023-01-24T14:30:32.358Z,98168.28
2023-01-24T14:33:28.056Z,98170.81
2023-01-24T14:36:13.569Z,98173.50
2023-01-24T14:38:45.151Z,98166.06
2023-01-24T14:41:23.501Z,98163.69
2023-01-24T14:43:55.360Z,98169.91
2023-01-24T14:46:27.057Z,98188.56
2023-01-24T14:48:58.669Z,98170.94
2023-01-24T14:51:30.439Z,98178.75
2023-01-24T14:54:02.099Z,98171.97
2023-01-24T14:56:40.137Z,98178.69
2023-01-24T14:59:12.934Z,98186.69
2023-01-24T15:01:45.656Z,98185.59
2023-01-24T15:04:27.036Z,98180.75
2023-01-24T15:07:14.536Z,98187.13
2023-01-24T15:09:46.313Z,98187.25
2023-01-24T15:12:30.486Z,98186.13
2023-01-24T15:15:05.299Z,98197.38
2023-01-24T15:17:37.023Z,98198.91
2023-01-24T15:20:11.445Z,98210.41
2023-01-24T15:22:48.530Z,98203.44
2023-01-24T15:25:23.370Z,98200.53
2023-01-24T15:27:56.419Z,98201.72
2023-01-24T15:30:28.521Z,98203.09
2023-01-24T15:33:02.656Z,98200.94
2023-01-24T15:35:46.936Z,98205.28
2023-01-24T15:38:28.207Z,98211.44
2023-01-24T15:41:02.747Z,98214.56
2023-01-24T15:43:49.644Z,98209.25
2023-01-24T15:46:39.278Z,98202.38
2023-01-24T15:49:32.432Z,98198.38
2023-01-24T15:52:10.466Z,98200.50
2023-01-24T15:54:45.488Z,98203.63
2023-01-24T15:57:21.994Z,98202.03
2023-01-24T15:59:59.968Z,98206.50
2023-01-24T16:02:32.143Z,98213.50
2023-01-24T16:05:12.672Z,98206.22
2023-01-24T16:07:44.454Z,98207.69
2023-01-24T16:10:18.093Z,98215.25
2023-01-24T16:12:52.455Z,98209.03
2023-01-24T16:15:24.218Z,98211.91
2023-01-24T16:17:55.814Z,98214.09
2023-01-24T16:20:28.726Z,98207.34
2023-01-24T16:23:00.438Z,98216.28
2023-01-24T16:25:35.563Z,98216.41
2023-01-24T16:28:07.222Z,98220.25
2023-01-24T16:30:38.857Z,98218.78
2023-01-24T16:33:10.485Z,98214.81
2023-01-24T16:35:42.082Z,98228.09
2023-01-24T16:38:15.526Z,98230.00
2023-01-24T16:40:47.104Z,98231.59
2023-01-24T16:43:21.787Z,98228.25
2023-01-24T16:45:53.352Z,98237.06
2023-01-24T16:48:25.083Z,98234.13
2023-01-24T16:50:56.672Z,98238.06
2023-01-24T16:53:28.297Z,98243.34
2023-01-24T16:55:59.909Z,98241.25
2023-01-24T16:58:31.473Z,98249.66
2023-01-24T17:01:10.340Z,98251.69
2023-01-24T17:03:41.961Z,98248.91
2023-01-24T17:06:15.292Z,98244.22
2023-01-24T17:08:51.629Z,98257.97
2023-01-24T17:11:23.772Z,98256.50
2023-01-24T17:13:55.564Z,98256.88
2023-01-24T17:16:27.301Z,98261.66
2023-01-24T17:18:59.014Z,98260.88
2023-01-24T17:21:30.593Z,98254.28
2023-01-24T17:24:02.324Z,98254.97
2023-01-24T17:26:34.156Z,98257.19
2023-01-24T17:29:05.882Z,98255.59
2023-01-24T17:31:39.265Z,98262.03
2023-01-24T17:34:11.148Z,98263.06
2023-01-24T17:36:42.808Z,98264.44
2023-01-24T17:39:14.634Z,98267.31
2023-01-24T17:41:46.646Z,98272.00
2023-01-24T17:44:18.289Z,98274.50
2023-01-24T17:46:51.398Z,98272.22
2023-01-24T17:49:23.023Z,98275.91
2023-01-24T17:51:54.627Z,98264.63
2023-01-24T17:54:28.709Z,98275.25
2023-01-24T17:57:00.355Z,98274.94
2023-01-24T17:59:31.972Z,98271.66
2023-01-24T18:02:03.941Z,98270.88
2023-01-24T18:04:35.497Z,98280.97
2023-01-24T18:07:07.036Z,98270.56
2023-01-24T18:09:40.556Z,98269.09
2023-01-24T18:12:13.084Z,98276.84
2023-01-24T18:14:44.862Z,98278.59
2023-01-24T18:17:17.551Z,98276.81
2023-01-24T18:19:49.271Z,98289.41
2023-01-24T18:22:20.900Z,98284.06
2023-01-24T18:24:52.534Z,98298.56
2023-01-24T18:27:24.221Z,98298.44
2023-01-24T18:29:55.840Z,98297.81
2023-01-24T18:32:27.535Z,98292.44
2023-01-24T18:34:59.300Z,98290.63
2023-01-24T18:37:31.332Z,98278.09
2023-01-24T18:40:05.960Z,98272.28
2023-01-24T18:42:37.663Z,98281.00
2023-01-24T18:45:09.742Z,98288.41
2023-01-24T18:47:41.352Z,98283.16
2023-01-24T18:50:13.132Z,98278.97
2023-01-24T18:52:44.763Z,98285.00
2023-01-24T18:55:16.516Z,98286.91
2023-01-24T18:57:48.139Z,98283.91
2023-01-24T19:00:20.111Z,98290.31
2023-01-24T19:02:51.751Z,98280.38
2023-01-24T19:05:23.345Z,98277.78
2023-01-24T19:07:54.994Z,98281.31
2023-01-24T19:10:27.596Z,98269.50
2023-01-24T19:12:59.185Z,98283.13
2023-01-24T19:15:30.818Z,98290.34
2023-01-24T19:18:02.420Z,98289.44
2023-01-24T19:20:35.123Z,98284.91
2023-01-24T19:23:06.709Z,98284.47
2023-01-24T19:25:38.337Z,98288.72
2023-01-24T19:28:09.905Z,98289.53
2023-01-24T19:30:41.742Z,98291.41
2023-01-24T19:33:13.431Z,98281.59
2023-01-24T19:35:45.406Z,98276.44
2023-01-24T19:38:17.505Z,98275.00
2023-01-24T19:40:49.471Z,98287.00
2023-01-24T19:43:21.170Z,98280.63
2023-01-24T19:45:59.083Z,98285.41
2023-01-24T19:48:33.944Z,98278.91
2023-01-24T19:51:08.670Z,98282.09
2023-01-24T19:53:40.283Z,98288.22
2023-01-24T19:56:12.171Z,98291.16
2023-01-24T19:58:45.215Z,98285.63
2023-01-24T20:01:20.319Z,98280.09
2023-01-24T20:03:55.118Z,98281.00
2023-01-24T20:06:27.097Z,98293.59
2023-01-24T20:08:58.905Z,98284.53
2023-01-24T20:11:30.614Z,98283.16
2023-01-24T20:14:02.329Z,98283.19
2023-01-24T20:16:34.362Z,98292.22
2023-01-24T20:19:07.235Z,98286.09
2023-01-24T20:21:38.914Z,98286.34
2023-01-24T20:24:10.675Z,98295.13
2023-01-24T20:26:42.316Z,98289.75
2023-01-24T20:29:13.983Z,98292.09
2023-01-24T20:31:45.696Z,98287.09
2023-01-24T20:34:17.821Z,98298.69
2023-01-24T20:36:50.310Z,98285.88
2023-01-24T20:39:22.014Z,98294.50
2023-01-24T20:41:53.645Z,98288.50
2023-01-24T20:44:27.336Z,98282.47
2023-01-24T20:46:59.278Z,98288.28
2023-01-24T20:49:30.889Z,98282.16
2023-01-24T20:52:02.529Z,98275.94
2023-01-24T20:54:34.248Z,98285.84
2023-01-24T20:57:05.931Z,98285.00
2023-01-24T20:59:37.545Z,98279.88
2023-01-24T21:02:10.227Z,98281.84
2023-01-24T21:04:41.998Z,98286.19
2023-01-24T21:07:13.638Z,98283.09
2023-01-24T21:09:45.239Z,98280.09
2023-01-24T21:12:16.834Z,98278.38
2023-01-24T21:14:48.478Z,98285.34
2023-01-24T21:17:20.078Z,98280.19
2023-01-24T21:19:51.682Z,98283.91
2023-01-24T21:22:23.478Z,98287.06
2023-01-24T21:24:55.143Z,98284.66
2023-01-24T21:27:26.822Z,98282.66
2023-01-24T21:29:58.372Z,98289.22
2023-01-24T21:32:30.069Z,98293.28
2023-01-24T21:35:01.723Z,98289.06
2023-01-24T21:37:33.306Z,98285.22
2023-01-24T21:40:05.560Z,98283.59
2023-01-24T21:42:37.247Z,98282.41
2023-01-24T21:45:09.393Z,98280.84
2023-01-24T21:47:41.295Z,98288.91
2023-01-24T21:50:12.889Z,98296.31
2023-01-24T21:52:46.024Z,98291.56
2023-01-24T21:55:17.830Z,98283.75
2023-01-24T21:57:49.429Z,98290.63
2023-01-24T22:00:21.093Z,98281.75
2023-01-24T22:02:52.773Z,98286.78
2023-01-24T22:05:24.395Z,98283.97
2023-01-24T22:07:56.249Z,98284.63
2023-01-24T22:10:27.854Z,98286.69
2023-01-24T22:12:59.471Z,98289.31
2023-01-24T22:15:31.333Z,98286.47
2023-01-24T22:18:03.165Z,98288.91
2023-01-24T22:20:34.977Z,98285.00
2023-01-24T22:23:27.322Z,98288.25
2023-01-24T22:26:10.609Z,98285.56
2023-01-24T22:28:42.453Z,98292.72
2023-01-24T22:31:14.484Z,98282.53
2023-01-24T22:33:46.472Z,98286.19
2023-01-24T22:36:18.126Z,98279.56
2023-01-24T22:38:49.702Z,98283.09
2023-01-24T22:41:21.315Z,98283.63
2023-01-24T22:43:52.869Z,98292.44
2023-01-24T22:46:24.656Z,98282.47
2023-01-24T22:48:56.325Z,98280.25
2023-01-24T22:51:27.922Z,98289.09
2023-01-24T22:53:59.595Z,98286.34
2023-01-24T22:56:31.413Z,98275.69
2023-01-24T22:59:03.161Z,98277.59
2023-01-24T23:01:34.929Z,98282.78
2023-01-24T23:04:07.680Z,98273.91
2023-01-24T23:06:39.332Z,98270.66
2023-01-24T23:09:11.598Z,98274.34
2023-01-24T23:11:44.021Z,98280.91
2023-01-24T23:14:17.697Z,98267.84
2023-01-24T23:17:01.377Z,98272.41
2023-01-24T23:19:39.472Z,98266.53
2023-01-24T23:22:12.525Z,98266.63
2023-01-24T23:24:45.229Z,98265.44
2023-01-24T23:27:19.117Z,98259.34
2023-01-24T23:30:28.442Z,98254.84
2023-01-24T23:33:06.087Z,98261.56
2023-01-24T23:35:38.052Z,98263.78
2023-01-24T23:38:09.713Z,98257.84
2023-01-24T23:40:41.425Z,98257.63
2023-01-24T23:43:13.524Z,98251.88
2023-01-24T23:45:45.510Z,98246.75
2023-01-24T23:48:17.219Z,98244.19
2023-01-24T23:50:59.430Z,98243.56
2023-01-24T23:53:31.222Z,98249.84
2023-01-24T23:56:03.151Z,98245.47
2023-01-24T23:58:35.153Z,98243.50
